createdAt,value
2023-05-05T00:02:07.575Z,16.97
2023-05-05T00:04:34.646Z,16.93
2023-05-05T00:07:02.185Z,16.88
2023-05-05T00:09:29.715Z,16.93
2023-05-05T00:11:56.469Z,16.89
2023-05-05T00:14:23.528Z,16.91
2023-05-05T00:16:50.299Z,16.86
2023-05-05T00:19:17.328Z,16.76
2023-05-05T00:21:44.061Z,16.73
2023-05-05T00:24:11.479Z,16.61
2023-05-05T00:26:38.201Z,16.60
2023-05-05T00:29:05.241Z,16.59
2023-05-05T00:31:31.985Z,16.48
2023-05-05T00:33:58.994Z,16.50
2023-05-05T00:36:25.809Z,16.43
2023-05-05T00:38:52.852Z,16.39
2023-05-05T00:41:19.547Z,16.36
2023-05-05T00:43:46.561Z,16.29
2023-05-05T00:46:19.378Z,16.25
2023-05-05T00:48:46.484Z,16.26
2023-05-05T00:51:13.861Z,16.30
2023-05-05T00:53:43.071Z,16.26
2023-05-05T00:56:09.774Z,16.24
2023-05-05T00:58:36.937Z,16.26
2023-05-05T01:01:03.694Z,16.19
2023-05-05T01:03:30.815Z,16.20
2023-05-05T01:06:20.971Z,16.10
2023-05-05T01:09:02.067Z,16.09
2023-05-05T01:11:46.553Z,16.09
2023-05-05T01:14:18.378Z,15.99
2023-05-05T01:17:01.345Z,16.05
2023-05-05T01:19:49.914Z,16.00
2023-05-05T01:22:18.981Z,15.92
2023-05-05T01:25:12.745Z,15.89
2023-05-05T01:27:50.243Z,15.88
2023-05-05T01:30:23.849Z,15.90
2023-05-05T01:32:51.401Z,15.82
2023-05-05T01:35:20.337Z,15.80
2023-05-05T01:38:03.015Z,15.70
2023-05-05T01:40:31.955Z,15.74
2023-05-05T01:42:58.645Z,15.74
2023-05-05T01:45:27.194Z,15.70
2023-05-05T01:47:55.751Z,15.69
2023-05-05T01:50:22.824Z,15.64
2023-05-05T01:52:49.520Z,15.63
2023-05-05T01:55:16.511Z,15.63
2023-05-05T01:57:43.218Z,15.57
2023-05-05T02:00:11.488Z,15.53
2023-05-05T02:02:38.928Z,15.54
2023-05-05T02:05:06.336Z,15.50
2023-05-05T02:07:33.137Z,15.44
2023-05-05T02:10:01.829Z,15.38
2023-05-05T02:12:29.893Z,15.37
2023-05-05T02:14:58.741Z,15.44
2023-05-05T02:17:25.846Z,15.37
2023-05-05T02:19:52.900Z,15.34
2023-05-05T02:22:19.598Z,15.33
2023-05-05T02:24:46.646Z,15.30
2023-05-05T02:27:13.388Z,15.27
2023-05-05T02:29:52.021Z,15.23
2023-05-05T02:32:22.349Z,15.25
2023-05-05T02:34:49.753Z,15.20
2023-05-05T02:37:19.104Z,15.17
2023-05-05T02:39:58.668Z,15.17
2023-05-05T02:42:30.054Z,15.14
2023-05-05T02:44:58.714Z,15.11
2023-05-05T02:47:32.124Z,15.09
2023-05-05T02:49:59.142Z,15.05
2023-05-05T02:52:25.826Z,14.97
2023-05-05T02:54:52.800Z,14.98
2023-05-05T02:57:20.950Z,14.97
2023-05-05T02:59:51.694Z,14.89
2023-05-05T03:02:20.014Z,14.84
2023-05-05T03:04:49.283Z,14.85
2023-05-05T03:07:27.953Z,14.81
2023-05-05T03:09:59.871Z,14.76
2023-05-05T03:12:28.232Z,14.72
2023-05-05T03:14:57.008Z,14.75
2023-05-05T03:17:23.802Z,14.73
2023-05-05T03:19:50.837Z,14.71
2023-05-05T03:22:17.574Z,14.67
2023-05-05T03:24:49.718Z,14.64
2023-05-05T03:27:16.468Z,14.66
2023-05-05T03:29:43.565Z,14.62
2023-05-05T03:32:10.312Z,14.56
2023-05-05T03:34:37.861Z,14.56
2023-05-05T03:37:04.619Z,14.51
2023-05-05T03:39:31.669Z,14.48
2023-05-05T03:41:58.434Z,14.50
2023-05-05T03:44:25.479Z,14.51
2023-05-05T03:46:52.175Z,14.45
2023-05-05T03:49:19.245Z,14.45
2023-05-05T03:51:46.997Z,14.42
2023-05-05T03:54:14.127Z,14.41
2023-05-05T03:56:40.985Z,14.43
2023-05-05T03:59:08.886Z,14.36
2023-05-05T04:01:35.811Z,14.32
2023-05-05T04:04:02.836Z,14.32
2023-05-05T04:06:29.835Z,14.26
2023-05-05T04:08:57.138Z,14.28
2023-05-05T04:11:23.960Z,14.28
2023-05-05T04:13:51.025Z,14.24
2023-05-05T04:16:17.794Z,14.28
2023-05-05T04:18:44.860Z,14.28
2023-05-05T04:21:11.711Z,14.22
2023-05-05T04:23:38.770Z,14.19
2023-05-05T04:26:05.498Z,14.21
2023-05-05T04:28:32.577Z,14.22
2023-05-05T04:31:01.229Z,14.19
2023-05-05T04:33:28.416Z,14.18
2023-05-05T04:35:55.151Z,14.17
2023-05-05T04:38:22.433Z,14.25
2023-05-05T04:40:49.190Z,14.26
2023-05-05T04:43:16.192Z,14.24
2023-05-05T04:45:52.274Z,14.22
2023-05-05T04:48:20.810Z,14.22
2023-05-05T04:50:47.727Z,14.19
2023-05-05T04:53:14.743Z,14.26
2023-05-05T04:55:41.459Z,14.29
2023-05-05T04:58:08.540Z,14.31
2023-05-05T05:00:36.876Z,14.27
2023-05-05T05:03:04.654Z,14.35
2023-05-05T05:05:31.418Z,14.31
2023-05-05T05:07:58.441Z,14.33
2023-05-05T05:10:25.219Z,14.35
2023-05-05T05:12:52.256Z,14.38
2023-05-05T05:15:18.981Z,14.36
2023-05-05T05:17:46.027Z,14.42
2023-05-05T05:20:12.894Z,14.54
2023-05-05T05:22:40.993Z,14.61
2023-05-05T05:25:08.001Z,14.60
2023-05-05T05:27:35.022Z,14.61
2023-05-05T05:30:02.149Z,14.63
2023-05-05T05:32:29.542Z,14.69
2023-05-05T05:34:56.296Z,14.75
2023-05-05T05:37:23.330Z,14.81
2023-05-05T05:39:53.220Z,14.88
2023-05-05T05:42:20.231Z,14.97
2023-05-05T05:44:46.967Z,15.01
2023-05-05T05:47:14.410Z,15.09
2023-05-05T05:49:41.393Z,15.16
2023-05-05T05:52:08.471Z,15.26
2023-05-05T05:54:35.672Z,15.31
2023-05-05T05:57:02.656Z,15.37
2023-05-05T05:59:29.390Z,15.47
2023-05-05T06:01:56.670Z,15.50
2023-05-05T06:04:23.394Z,15.61
2023-05-05T06:06:50.837Z,15.67
2023-05-05T06:09:17.517Z,15.75
2023-05-05T06:11:44.521Z,15.83
2023-05-05T06:14:11.201Z,15.94
2023-05-05T06:16:38.174Z,15.99
2023-05-05T06:19:09.567Z,16.07
2023-05-05T06:21:37.019Z,16.16
2023-05-05T06:24:03.989Z,16.23
2023-05-05T06:26:31.508Z,16.32
2023-05-05T06:28:58.284Z,16.39
2023-05-05T06:31:25.801Z,16.44
2023-05-05T06:33:52.522Z,16.51
2023-05-05T06:36:19.623Z,16.60
2023-05-05T06:38:46.402Z,16.69
2023-05-05T06:41:13.432Z,16.76
2023-05-05T06:43:44.291Z,16.81
2023-05-05T06:46:11.504Z,16.89
2023-05-05T06:48:38.337Z,17.00
2023-05-05T06:51:05.401Z,17.05
2023-05-05T06:53:32.165Z,17.09
2023-05-05T06:55:59.191Z,17.17
2023-05-05T06:58:25.948Z,17.27
2023-05-05T07:00:54.171Z,17.31
2023-05-05T07:03:20.986Z,17.40
2023-05-05T07:05:48.040Z,17.51
2023-05-05T07:08:14.774Z,17.55
2023-05-05T07:10:42.209Z,17.62
2023-05-05T07:13:09.132Z,17.72
2023-05-05T07:15:36.384Z,17.80
2023-05-05T07:18:03.214Z,17.88
2023-05-05T07:20:30.289Z,17.98
2023-05-05T07:22:57.004Z,18.09
2023-05-05T07:25:24.020Z,18.19
2023-05-05T07:27:51.155Z,18.26
2023-05-05T07:30:19.142Z,18.34
2023-05-05T07:32:46.739Z,18.45
2023-05-05T07:35:13.933Z,18.54
2023-05-05T07:37:40.702Z,18.62
2023-05-05T07:40:08.736Z,18.71
2023-05-05T07:42:35.952Z,18.83
2023-05-05T07:45:03.614Z,18.93
2023-05-05T07:47:30.562Z,19.01
2023-05-05T07:49:57.874Z,19.11
2023-05-05T07:52:37.064Z,19.17
2023-05-05T07:55:11.939Z,19.36
2023-05-05T07:57:38.976Z,19.49
2023-05-05T08:00:06.777Z,19.51
2023-05-05T08:02:33.932Z,19.60
2023-05-05T08:05:01.051Z,19.69
2023-05-05T08:07:27.760Z,19.82
2023-05-05T08:09:54.763Z,19.87
2023-05-05T08:12:21.473Z,19.99
2023-05-05T08:14:48.534Z,20.01
2023-05-05T08:17:16.265Z,20.14
2023-05-05T08:19:43.259Z,20.23
2023-05-05T08:22:09.973Z,20.30
2023-05-05T08:24:36.986Z,20.39
2023-05-05T08:27:04.182Z,20.51
2023-05-05T08:29:31.183Z,20.57
2023-05-05T08:31:58.090Z,20.72
2023-05-05T08:34:25.408Z,20.78
2023-05-05T08:36:52.190Z,20.88
2023-05-05T08:39:19.173Z,20.92
2023-05-05T08:41:45.991Z,21.03
2023-05-05T08:44:13.190Z,21.14
2023-05-05T08:46:41.221Z,21.24
2023-05-05T08:49:08.950Z,21.30
2023-05-05T08:51:41.196Z,21.40
2023-05-05T08:54:10.162Z,21.53
2023-05-05T08:56:40.041Z,21.58
2023-05-05T08:59:07.055Z,21.68
2023-05-05T09:01:33.997Z,21.76
2023-05-05T09:04:01.212Z,21.86
2023-05-05T09:06:28.930Z,21.96
2023-05-05T09:08:57.613Z,22.05
2023-05-05T09:11:26.266Z,22.11
2023-05-05T09:13:53.314Z,22.17
2023-05-05T09:16:20.070Z,22.25
2023-05-05T09:18:47.139Z,22.32
2023-05-05T09:21:24.733Z,22.44
2023-05-05T09:24:09.095Z,22.55
2023-05-05T09:26:37.667Z,22.57
2023-05-05T09:29:05.024Z,22.68
2023-05-05T09:31:32.108Z,22.79
2023-05-05T09:34:01.074Z,22.87
2023-05-05T09:36:49.380Z,22.96
2023-05-05T09:39:19.853Z,23.08
2023-05-05T09:41:47.037Z,23.14
2023-05-05T09:44:17.049Z,23.20
2023-05-05T09:46:51.479Z,23.22
2023-05-05T09:49:20.515Z,23.37
2023-05-05T09:51:47.741Z,23.42
2023-05-05T09:54:28.582Z,23.51
2023-05-05T09:56:58.804Z,23.60
2023-05-05T09:59:25.845Z,23.69
2023-05-05T10:01:52.593Z,23.75
2023-05-05T10:04:37.820Z,23.94
2023-05-05T10:07:04.599Z,24.00
2023-05-05T10:09:34.245Z,24.14
2023-05-05T10:12:01.801Z,24.24
2023-05-05T10:14:28.871Z,24.41
2023-05-05T10:16:55.739Z,24.44
2023-05-05T10:19:23.693Z,24.49
2023-05-05T10:21:54.456Z,24.58
2023-05-05T10:24:34.462Z,24.62
2023-05-05T10:27:03.280Z,24.77
2023-05-05T10:29:45.886Z,24.86
2023-05-05T10:32:56.418Z,24.90
2023-05-05T10:35:24.393Z,25.02
2023-05-05T10:37:51.281Z,25.02
2023-05-05T10:40:18.360Z,25.10
2023-05-05T10:42:45.108Z,25.26
2023-05-05T10:45:12.371Z,25.24
2023-05-05T10:47:40.400Z,25.29
2023-05-05T10:50:16.365Z,25.32
2023-05-05T10:52:43.140Z,25.38
2023-05-05T10:55:24.377Z,25.54
2023-05-05T10:57:52.637Z,25.64
2023-05-05T11:00:37.938Z,25.85
2023-05-05T11:03:16.834Z,25.88
2023-05-05T11:06:07.636Z,25.98
2023-05-05T11:08:44.132Z,26.12
2023-05-05T11:11:11.785Z,26.07
2023-05-05T11:13:39.586Z,26.14
2023-05-05T11:16:45.874Z,26.22
2023-05-05T11:19:48.662Z,26.18
2023-05-05T11:22:16.678Z,26.26
2023-05-05T11:24:43.441Z,26.32
2023-05-05T11:27:11.529Z,26.34
2023-05-05T11:30:10.049Z,26.37
2023-05-05T11:32:37.343Z,26.45
2023-05-05T11:35:06.178Z,26.53
2023-05-05T11:37:33.330Z,26.55
2023-05-05T11:40:02.872Z,26.60
2023-05-05T11:42:30.360Z,26.72
2023-05-05T11:44:57.189Z,26.80
2023-05-05T11:47:25.087Z,26.81
2023-05-05T11:49:51.892Z,26.87
2023-05-05T11:52:18.967Z,26.90
2023-05-05T11:54:50.182Z,26.93
2023-05-05T11:57:21.071Z,27.03
2023-05-05T11:59:54.663Z,27.09
2023-05-05T12:02:22.075Z,27.15
2023-05-05T12:04:49.329Z,27.21
2023-05-05T12:07:17.346Z,27.23
2023-05-05T12:09:45.653Z,27.31
2023-05-05T12:12:12.913Z,27.38
2023-05-05T12:14:52.655Z,27.43
2023-05-05T12:17:20.643Z,27.51
2023-05-05T12:19:48.121Z,27.54
2023-05-05T12:22:19.127Z,27.53
2023-05-05T12:24:45.973Z,27.58
2023-05-05T12:27:13.028Z,27.64
2023-05-05T12:29:39.763Z,27.69
2023-05-05T12:32:06.784Z,27.76
2023-05-05T12:34:33.694Z,27.85
2023-05-05T12:37:00.997Z,27.92
2023-05-05T12:39:36.980Z,27.96
2023-05-05T12:42:04.797Z,28.02
2023-05-05T12:44:38.416Z,28.08
2023-05-05T12:47:05.679Z,28.10
2023-05-05T12:49:35.339Z,28.12
2023-05-05T12:52:02.364Z,28.13
2023-05-05T12:54:29.764Z,28.16
2023-05-05T12:56:59.743Z,28.19
2023-05-05T12:59:27.539Z,28.24
2023-05-05T13:01:56.220Z,28.31
2023-05-05T13:04:24.186Z,28.32
2023-05-05T13:07:11.676Z,28.37
2023-05-05T13:09:38.515Z,28.44
2023-05-05T13:12:07.197Z,28.45
2023-05-05T13:14:34.522Z,28.44
2023-05-05T13:17:01.684Z,28.48
2023-05-05T13:19:28.658Z,28.52
2023-05-05T13:21:56.412Z,28.57
2023-05-05T13:24:31.574Z,28.63
2023-05-05T13:27:03.125Z,28.63
2023-05-05T13:29:31.527Z,28.68
2023-05-05T13:31:58.974Z,28.73
2023-05-05T13:34:25.940Z,28.74
2023-05-05T13:36:53.051Z,28.74
2023-05-05T13:39:19.970Z,28.78
2023-05-05T13:41:47.055Z,28.80
2023-05-05T13:44:14.409Z,28.83
2023-05-05T13:46:42.499Z,28.88
2023-05-05T13:49:09.371Z,28.86
2023-05-05T13:51:37.027Z,28.91
2023-05-05T13:54:04.052Z,28.97
2023-05-05T13:56:31.166Z,28.93
2023-05-05T13:58:58.372Z,28.94
2023-05-05T14:01:25.904Z,28.99
2023-05-05T14:03:53.076Z,28.96
2023-05-05T14:06:21.067Z,28.98
2023-05-05T14:08:47.963Z,29.00
2023-05-05T14:11:17.143Z,28.97
2023-05-05T14:13:44.780Z,28.97
2023-05-05T14:16:12.131Z,28.98
2023-05-05T14:18:38.861Z,28.98
2023-05-05T14:21:05.919Z,29.05
2023-05-05T14:23:32.646Z,29.05
2023-05-05T14:25:59.682Z,29.11
2023-05-05T14:28:26.496Z,29.16
2023-05-05T14:30:53.541Z,29.17
2023-05-05T14:33:20.319Z,29.20
2023-05-05T14:35:47.438Z,29.18
2023-05-05T14:38:14.204Z,29.21
2023-05-05T14:40:41.622Z,29.22
2023-05-05T14:43:08.324Z,29.23
2023-05-05T14:45:35.501Z,29.24
2023-05-05T14:48:02.762Z,29.23
2023-05-05T14:50:30.051Z,29.15
2023-05-05T14:52:56.796Z,29.17
2023-05-05T14:55:25.054Z,29.17
2023-05-05T14:57:52.061Z,29.15
2023-05-05T15:00:19.318Z,29.17
2023-05-05T15:02:48.057Z,29.20
2023-05-05T15:05:15.570Z,29.23
2023-05-05T15:07:42.375Z,29.22
2023-05-05T15:10:09.910Z,29.23
2023-05-05T15:12:36.693Z,29.22
2023-05-05T15:15:03.956Z,29.22
2023-05-05T15:17:31.842Z,29.19
2023-05-05T15:19:58.939Z,29.18
2023-05-05T15:22:26.077Z,29.17
2023-05-05T15:24:53.261Z,29.18
2023-05-05T15:27:20.149Z,29.16
2023-05-05T15:29:47.216Z,29.16
2023-05-05T15:32:14.268Z,29.05
2023-05-05T15:34:42.128Z,29.08
2023-05-05T15:37:08.839Z,29.04
2023-05-05T15:39:35.910Z,29.01
2023-05-05T15:42:05.668Z,29.02
2023-05-05T15:44:32.731Z,28.95
2023-05-05T15:46:59.524Z,28.97
2023-05-05T15:49:26.572Z,28.96
2023-05-05T15:51:53.280Z,28.96
2023-05-05T15:54:20.384Z,28.93
2023-05-05T15:56:47.792Z,28.91
2023-05-05T15:59:14.821Z,28.86
2023-05-05T16:01:41.553Z,28.76
2023-05-05T16:04:08.685Z,28.79
2023-05-05T16:06:35.864Z,28.75
2023-05-05T16:09:03.861Z,28.63
2023-05-05T16:11:30.890Z,28.58
2023-05-05T16:13:57.883Z,28.58
2023-05-05T16:16:24.659Z,28.55
2023-05-05T16:18:51.968Z,28.49
2023-05-05T16:21:18.747Z,28.46
2023-05-05T16:23:46.557Z,28.45
2023-05-05T16:26:13.356Z,28.43
2023-05-05T16:28:40.443Z,28.37
2023-05-05T16:31:09.535Z,28.33
2023-05-05T16:33:40.761Z,28.29
2023-05-05T16:36:12.343Z,28.27
2023-05-05T16:38:40.156Z,28.21
2023-05-05T16:41:07.247Z,28.14
2023-05-05T16:43:34.874Z,28.15
2023-05-05T16:46:01.875Z,28.11
2023-05-05T16:48:29.188Z,28.03
2023-05-05T16:50:57.687Z,27.96
2023-05-05T16:53:25.101Z,27.97
2023-05-05T16:55:52.655Z,27.93
2023-05-05T16:58:23.179Z,27.86
2023-05-05T17:00:50.920Z,27.79
2023-05-05T17:03:18.697Z,27.76
2023-05-05T17:05:50.184Z,27.75
2023-05-05T17:08:17.635Z,27.60
2023-05-05T17:10:44.933Z,27.49
2023-05-05T17:13:12.665Z,27.50
2023-05-05T17:15:39.383Z,27.44
2023-05-05T17:18:06.793Z,27.36
2023-05-05T17:20:33.906Z,27.14
2023-05-05T17:23:02.201Z,27.14
2023-05-05T17:25:28.960Z,27.10
2023-05-05T17:27:56.248Z,27.03
2023-05-05T17:30:23.159Z,26.98
2023-05-05T17:32:50.446Z,26.86
2023-05-05T17:35:17.321Z,26.78
2023-05-05T17:37:44.511Z,26.63
2023-05-05T17:40:11.444Z,26.59
2023-05-05T17:42:40.597Z,26.54
2023-05-05T17:45:08.579Z,26.55
2023-05-05T17:47:36.615Z,26.51
2023-05-05T17:50:03.811Z,26.46
2023-05-05T17:52:30.987Z,26.43
2023-05-05T17:54:57.866Z,26.33
2023-05-05T17:57:24.955Z,26.21
2023-05-05T17:59:53.586Z,26.18
2023-05-05T18:02:21.067Z,26.06
2023-05-05T18:04:47.920Z,25.91
2023-05-05T18:07:16.759Z,25.80
2023-05-05T18:09:43.732Z,25.69
2023-05-05T18:12:10.885Z,25.63
2023-05-05T18:14:37.897Z,25.53
2023-05-05T18:17:05.143Z,25.52
2023-05-05T18:19:32.077Z,25.42
2023-05-05T18:21:59.256Z,25.29
2023-05-05T18:24:26.197Z,25.24
2023-05-05T18:26:53.378Z,25.21
2023-05-05T18:29:21.827Z,25.14
2023-05-05T18:31:52.014Z,25.09
2023-05-05T18:34:19.366Z,25.07
2023-05-05T18:36:47.074Z,24.98
2023-05-05T18:39:14.625Z,24.96
2023-05-05T18:41:41.860Z,24.91
2023-05-05T18:44:08.729Z,24.91
2023-05-05T18:46:35.951Z,24.80
2023-05-05T18:49:03.575Z,24.70
2023-05-05T18:51:30.856Z,24.57
2023-05-05T18:53:58.932Z,24.65
2023-05-05T18:56:27.468Z,24.57
2023-05-05T18:58:54.422Z,24.55
2023-05-05T19:01:21.680Z,24.49
2023-05-05T19:03:48.851Z,24.43
2023-05-05T19:06:16.409Z,24.36
2023-05-05T19:08:44.039Z,24.28
2023-05-05T19:11:12.597Z,24.22
2023-05-05T19:13:44.028Z,24.18
2023-05-05T19:16:11.731Z,24.10
2023-05-05T19:18:39.158Z,24.01
2023-05-05T19:21:06.696Z,23.96
2023-05-05T19:23:34.665Z,23.88
2023-05-05T19:26:04.343Z,23.81
2023-05-05T19:28:32.117Z,23.73
2023-05-05T19:31:01.554Z,23.67
2023-05-05T19:33:28.400Z,23.58
2023-05-05T19:35:55.743Z,23.56
2023-05-05T19:38:22.673Z,23.48
2023-05-05T19:40:50.530Z,23.41
2023-05-05T19:43:18.515Z,23.37
2023-05-05T19:45:45.922Z,23.29
2023-05-05T19:48:12.816Z,23.26
2023-05-05T19:50:40.666Z,23.22
2023-05-05T19:53:08.652Z,23.14
2023-05-05T19:55:35.858Z,23.13
2023-05-05T19:58:03.275Z,23.05
2023-05-05T20:00:31.074Z,23.01
2023-05-05T20:02:58.072Z,22.93
2023-05-05T20:05:26.347Z,22.87
2023-05-05T20:07:53.275Z,22.83
2023-05-05T20:10:22.000Z,22.77
2023-05-05T20:12:50.220Z,22.71
2023-05-05T20:15:20.724Z,22.67
2023-05-05T20:17:49.092Z,22.60
2023-05-05T20:20:18.698Z,22.58
2023-05-05T20:22:46.198Z,22.55
2023-05-05T20:25:17.957Z,22.54
2023-05-05T20:27:45.885Z,22.45
2023-05-05T20:30:13.406Z,22.38
2023-05-05T20:32:40.805Z,22.37
2023-05-05T20:35:08.769Z,22.38
2023-05-05T20:37:35.819Z,22.34
2023-05-05T20:40:04.448Z,22.25
2023-05-05T20:42:31.337Z,22.20
2023-05-05T20:45:00.553Z,22.20
2023-05-05T20:47:27.407Z,22.09
2023-05-05T20:49:56.239Z,22.02
2023-05-05T20:52:23.178Z,21.98
2023-05-05T20:54:52.449Z,21.92
2023-05-05T20:57:19.346Z,21.82
2023-05-05T20:59:46.558Z,21.86
2023-05-05T21:02:13.479Z,21.77
2023-05-05T21:04:40.817Z,21.76
2023-05-05T21:07:07.716Z,21.72
2023-05-05T21:09:35.454Z,21.57
2023-05-05T21:12:02.569Z,21.54
2023-05-05T21:14:30.544Z,21.47
2023-05-05T21:16:59.104Z,21.39
2023-05-05T21:19:26.482Z,21.38
2023-05-05T21:21:53.760Z,21.33
2023-05-05T21:24:21.155Z,21.28
2023-05-05T21:26:48.005Z,21.23
2023-05-05T21:29:15.131Z,21.21
2023-05-05T21:31:42.156Z,21.13
2023-05-05T21:34:09.254Z,21.13
2023-05-05T21:36:36.842Z,21.14
2023-05-05T21:39:04.020Z,21.14
2023-05-05T21:41:30.802Z,21.04
2023-05-05T21:43:58.127Z,20.99
2023-05-05T21:46:24.994Z,20.94
2023-05-05T21:48:52.114Z,20.87
2023-05-05T21:51:20.320Z,20.85
2023-05-05T21:53:47.427Z,20.82
2023-05-05T21:56:14.280Z,20.78
2023-05-05T21:58:41.326Z,20.74
2023-05-05T22:01:08.192Z,20.69
2023-05-05T22:03:35.895Z,20.64
2023-05-05T22:06:02.875Z,20.67
2023-05-05T22:08:30.034Z,20.61
2023-05-05T22:10:56.714Z,20.69
2023-05-05T22:13:23.921Z,20.64
2023-05-05T22:15:50.734Z,20.55
2023-05-05T22:18:17.824Z,20.53
2023-05-05T22:20:44.571Z,20.46
2023-05-05T22:23:11.802Z,20.46
2023-05-05T22:25:38.581Z,20.46
2023-05-05T22:28:05.676Z,20.38
2023-05-05T22:30:32.485Z,20.28
2023-05-05T22:32:59.604Z,20.24
2023-05-05T22:35:26.322Z,20.17
2023-05-05T22:37:53.372Z,20.14
2023-05-05T22:40:20.072Z,20.09
2023-05-05T22:42:47.122Z,20.03
2023-05-05T22:45:13.852Z,19.97
2023-05-05T22:47:40.995Z,19.95
2023-05-05T22:50:08.374Z,19.84
2023-05-05T22:52:35.511Z,19.80
2023-05-05T22:55:02.517Z,19.74
2023-05-05T22:57:29.566Z,19.67
2023-05-05T22:59:56.352Z,19.65
2023-05-05T23:02:23.903Z,19.58
2023-05-05T23:04:51.173Z,19.54
2023-05-05T23:07:18.559Z,19.58
2023-05-05T23:09:46.532Z,19.50
2023-05-05T23:12:13.631Z,19.49
2023-05-05T23:14:40.631Z,19.44
2023-05-05T23:17:07.664Z,19.49
2023-05-05T23:19:34.713Z,19.50
2023-05-05T23:22:02.059Z,19.49
2023-05-05T23:24:28.887Z,19.39
2023-05-05T23:26:58.842Z,19.38
2023-05-05T23:29:25.703Z,19.37
2023-05-05T23:31:52.740Z,19.27
2023-05-05T23:34:19.481Z,19.23
2023-05-05T23:36:46.758Z,19.27
2023-05-05T23:39:13.565Z,19.25
2023-05-05T23:41:40.573Z,19.23
2023-05-05T23:44:07.255Z,19.20
2023-05-05T23:46:34.392Z,19.16
2023-05-05T23:49:01.246Z,19.04
2023-05-05T23:51:28.294Z,18.95
2023-05-05T23:53:56.433Z,18.83
2023-05-05T23:56:24.024Z,18.73
2023-05-05T23:58:50.928Z,18.70
